Time;durP1;ratioP1;P1;durP2;ratioP2;P2;SDS_P1;SDS_P2;PMS_P1;PMS_P2;Temp;Humidity;BMP_temperature;BMP_pressure;BME280_temperature;BME280_humidity;BME280_pressure;Samples;Min_cycle;Max_cycle;Signal;HPM_P1;HPM_P2
2023/12/11 00:01:33;;;;;;;1.00;1.00;;;-1.00;99.90;0.50;96288.00;;;;5026866;28;20424;-66
2023/12/11 00:04:22;;;;;;;1.20;1.20;;;-1.10;99.90;0.40;96293.00;;;;5025543;28;20482;-66
2023/12/11 00:07:11;;;;;;;0.70;0.70;;;-1.20;99.90;0.60;96287.00;;;;5025363;28;20435;-66
2023/12/11 00:10:01;;;;;;;0.70;0.70;;;-1.20;99.90;0.20;96278.00;;;;5025965;28;20427;-66
2023/12/11 00:12:51;;;;;;;0.90;0.90;;;-1.20;99.90;0.70;96285.00;;;;5023684;28;20455;-66
2023/12/11 00:15:40;;;;;;;0.80;0.80;;;-1.10;99.90;0.90;96273.00;;;;5030885;28;20459;-65
2023/12/11 00:18:29;;;;;;;1.20;1.20;;;-1.00;99.90;0.20;96251.00;;;;5028186;28;20417;-65
2023/12/11 00:21:18;;;;;;;1.00;1.00;;;-1.10;99.90;0.30;96255.00;;;;5030409;28;20929;-65
2023/12/11 00:24:07;;;;;;;0.90;0.90;;;-1.10;99.90;0.10;96253.00;;;;5029342;28;20454;-66
2023/12/11 00:26:56;;;;;;;0.90;0.90;;;-1.20;99.90;0.50;96233.00;;;;5028168;28;20814;-67
2023/12/11 00:29:47;;;;;;;0.67;0.67;;;-1.10;99.90;0.30;96231.00;;;;5029889;28;20424;-66
2023/12/11 00:32:36;;;;;;;1.00;1.00;;;-1.10;99.90;0.00;96216.00;;;;5029326;28;20693;-67
2023/12/11 00:35:24;;;;;;;1.20;1.20;;;0.00;99.90;0.30;96217.00;;;;5029847;28;20420;-66
2023/12/11 00:38:13;;;;;;;0.83;0.83;;;-1.10;99.90;0.50;96236.00;;;;5030166;28;20429;-66
2023/12/11 00:41:02;;;;;;;1.00;1.00;;;-1.00;99.90;1.20;96213.00;;;;5024430;28;20431;-66
2023/12/11 00:43:51;;;;;;;0.87;0.87;;;-0.80;99.90;1.40;96203.00;;;;5023247;28;20953;-65
2023/12/11 00:46:42;;;;;;;0.70;0.70;;;-0.70;99.90;1.00;96192.00;;;;5031109;28;20433;-65
2023/12/11 00:49:31;;;;;;;1.30;1.30;;;-0.70;99.90;0.90;96193.00;;;;5027823;28;20431;-65
2023/12/11 00:52:20;;;;;;;1.37;1.37;;;-0.70;99.90;0.70;96176.00;;;;5026498;28;20553;-66
2023/12/11 00:55:09;;;;;;;0.70;0.70;;;-0.70;99.90;0.80;96174.00;;;;5025164;28;20432;-65
2023/12/11 00:57:58;;;;;;;0.90;0.90;;;-0.70;99.90;1.10;96163.00;;;;5028718;28;20413;-66
2023/12/11 01:00:47;;;;;;;0.97;0.97;;;-0.70;99.90;1.20;96184.00;;;;5024592;28;20442;-66
2023/12/11 01:03:38;;;;;;;0.80;0.80;;;-0.60;99.90;1.00;96191.00;;;;5030201;28;20832;-66
2023/12/11 01:06:27;;;;;;;0.90;0.90;;;-0.60;99.90;0.90;96194.00;;;;5027949;28;20447;-66
2023/12/11 01:09:16;;;;;;;0.70;0.70;;;-0.60;99.90;1.00;96185.00;;;;5029389;28;20424;-65
2023/12/11 01:12:06;;;;;;;0.77;0.77;;;-0.60;99.90;1.10;96192.00;;;;5024194;28;20953;-65
2023/12/11 01:14:55;;;;;;;0.70;0.70;;;-0.60;99.90;0.80;96190.00;;;;5024066;28;20412;-65
2023/12/11 01:17:44;;;;;;;0.70;0.70;;;-0.60;99.90;1.40;96198.00;;;;5021556;28;20428;-65
2023/12/11 01:20:35;;;;;;;1.00;1.00;;;-0.60;99.90;1.50;96189.00;;;;5029888;28;20435;-66
2023/12/11 01:23:24;;;;;;;0.93;0.93;;;-0.50;99.90;0.70;96199.00;;;;5029325;28;20985;-66
2023/12/11 01:26:12;;;;;;;0.67;0.67;;;-0.50;99.90;1.10;96199.00;;;;5029341;28;20425;-66
2023/12/11 01:29:01;;;;;;;0.83;0.83;;;-0.50;99.90;0.70;96191.00;;;;5025069;28;20434;-66
2023/12/11 01:31:50;;;;;;;1.10;1.10;;;-0.60;99.90;1.10;96189.00;;;;5026618;28;20459;-67
2023/12/11 01:34:39;;;;;;;1.07;1.07;;;-0.50;99.90;0.70;96185.00;;;;5029201;28;20448;-67
2023/12/11 01:37:30;;;;;;;1.10;1.10;;;-0.50;99.90;0.70;96170.00;;;;5029222;28;20440;-65
2023/12/11 01:40:19;;;;;;;1.20;1.20;;;-0.50;99.90;0.90;96155.00;;;;5024464;28;20421;-66
2023/12/11 01:43:15;;;;;;;0.90;0.90;;;-0.60;99.90;0.80;96131.00;;;;5023721;28;20456;-66
2023/12/11 01:46:08;;;;;;;0.93;0.93;;;-0.60;99.90;1.50;96141.00;;;;5024717;28;20427;-66
2023/12/11 01:48:57;;;;;;;0.80;0.80;;;-0.50;99.90;1.40;96141.00;;;;5021788;28;20421;-66
2023/12/11 01:51:47;;;;;;;1.13;1.13;;;-0.50;99.90;1.60;96126.00;;;;5029136;28;20452;-66
2023/12/11 01:54:38;;;;;;;0.70;0.70;;;-0.40;99.90;1.30;96127.00;;;;5028733;28;20471;-66
2023/12/11 01:57:28;;;;;;;1.00;1.00;;;-0.40;99.90;1.30;96120.00;;;;5028297;28;21030;-67
2023/12/11 02:00:18;;;;;;;0.60;0.60;;;-0.30;99.90;0.70;96103.00;;;;5029019;28;20460;-67
2023/12/11 02:03:07;;;;;;;0.87;0.87;;;-0.50;99.90;1.30;96097.00;;;;5023336;28;20885;-66
2023/12/11 02:05:56;;;;;;;0.93;0.93;;;-0.40;99.90;1.40;96102.00;;;;5027262;28;20431;-66
2023/12/11 02:08:46;;;;;;;0.87;0.87;;;-0.40;99.90;1.30;96104.00;;;;5028306;28;20436;-67
2023/12/11 02:11:37;;;;;;;1.13;1.13;;;-0.40;99.90;1.20;96119.00;;;;5026646;28;20456;-66
2023/12/11 02:14:26;;;;;;;1.00;1.00;;;-0.40;99.90;1.00;96117.00;;;;5029126;28;20476;-67
2023/12/11 02:17:15;;;;;;;0.90;0.90;;;-0.40;99.90;0.90;96114.00;;;;5027785;28;20937;-67
2023/12/11 02:20:05;;;;;;;0.80;0.80;;;-0.40;99.90;1.80;96116.00;;;;5023517;28;21062;-68
2023/12/11 02:22:56;;;;;;;0.90;0.90;;;-0.30;99.90;1.40;96111.00;;;;5022267;28;20444;-67
2023/12/11 02:25:55;;;;;;;0.80;0.80;;;-0.30;99.90;1.70;96107.00;;;;5029306;28;20436;-67
2023/12/11 02:28:46;;;;;;;0.73;0.73;;;-0.20;99.90;1.40;96078.00;;;;5028835;28;20432;-67
2023/12/11 02:31:35;;;;;;;1.10;1.10;;;-0.30;99.90;1.50;96079.00;;;;5026914;28;20448;-66
2023/12/11 02:34:24;;;;;;;1.40;1.40;;;-0.20;99.90;1.70;96068.00;;;;5027528;28;20472;-66
2023/12/11 02:37:13;;;;;;;0.80;0.80;;;-0.20;99.90;1.70;96064.00;;;;5024185;28;20949;-66
2023/12/11 02:40:02;;;;;;;0.70;0.70;;;-0.10;99.90;1.60;96067.00;;;;5025346;28;20483;-66
2023/12/11 02:42:51;;;;;;;1.00;1.00;;;-0.10;99.90;1.90;96050.00;;;;5023655;28;20456;-65
2023/12/11 02:45:43;;;;;;;0.90;0.90;;;-0.10;99.90;1.70;96043.00;;;;5027289;28;20428;-66
2023/12/11 02:48:32;;;;;;;1.07;1.07;;;0.00;99.90;1.10;96047.00;;;;5027970;28;20428;-65
2023/12/11 02:51:21;;;;;;;1.40;1.37;;;0.00;99.90;1.50;96058.00;;;;5028076;28;20432;-67
2023/12/11 02:54:10;;;;;;;0.90;0.90;;;0.00;99.90;1.60;96050.00;;;;5029522;28;20464;-66
2023/12/11 02:56:59;;;;;;;0.90;0.90;;;0.00;99.90;1.50;96065.00;;;;5021464;28;20421;-66
2023/12/11 02:59:48;;;;;;;0.87;0.87;;;0.00;99.90;1.10;96063.00;;;;5028370;28;20428;-66
2023/12/11 03:02:40;;;;;;;1.00;1.00;;;-0.10;99.90;1.30;96042.00;;;;5028600;28;20466;-65
2023/12/11 03:05:29;;;;;;;1.43;1.43;;;-0.10;99.90;1.80;96044.00;;;;5026766;28;20439;-65
2023/12/11 03:08:18;;;;;;;0.80;0.80;;;-0.10;99.90;1.70;96041.00;;;;5023534;28;20425;-65
2023/12/11 03:11:07;;;;;;;1.00;1.00;;;0.00;99.90;1.30;96036.00;;;;5027343;28;20424;-67
2023/12/11 03:13:56;;;;;;;0.87;0.87;;;0.00;99.90;1.50;96018.00;;;;5023314;28;20804;-66
2023/12/11 03:16:49;;;;;;;0.80;0.80;;;0.00;99.90;1.40;96004.00;;;;5026586;28;20428;-65
2023/12/11 03:19:39;;;;;;;0.90;0.90;;;0.00;99.90;2.00;96019.00;;;;5027904;28;21041;-66
2023/12/11 03:22:28;;;;;;;1.83;1.73;;;0.10;99.90;1.90;96056.00;;;;5027213;28;20830;-66
2023/12/11 03:25:18;;;;;;;1.00;1.00;;;0.20;99.90;2.10;96042.00;;;;5028709;28;20455;-65
2023/12/11 03:28:07;;;;;;;0.90;0.90;;;0.30;99.90;2.50;96044.00;;;;5023615;28;20435;-66
2023/12/11 03:30:56;;;;;;;0.87;0.87;;;0.30;99.90;2.30;96027.00;;;;5022202;28;21140;-66
2023/12/11 03:33:45;;;;;;;0.80;0.80;;;0.40;99.90;2.60;96021.00;;;;5028026;28;20456;-66
2023/12/11 03:36:35;;;;;;;1.00;1.00;;;0.50;99.90;2.00;96030.00;;;;5027508;28;20424;-68
2023/12/11 03:39:25;;;;;;;1.40;1.40;;;0.60;99.90;1.10;96013.00;;;;5027473;28;20942;-67
2023/12/11 03:42:14;;;;;;;0.70;0.70;;;0.40;99.90;1.90;96042.00;;;;5027981;28;20523;-67
2023/12/11 03:45:03;;;;;;;0.80;0.80;;;0.40;99.90;1.50;96023.00;;;;5031826;28;20443;-68
2023/12/11 03:47:52;;;;;;;0.80;0.80;;;0.30;99.90;2.00;96008.00;;;;5027414;28;20439;-65
2023/12/11 03:50:41;;;;;;;0.80;0.80;;;0.30;99.90;2.00;96026.00;;;;5031519;28;20439;-65
2023/12/11 03:53:32;;;;;;;1.90;1.80;;;0.30;99.90;1.70;96009.00;;;;5029544;28;20456;-66
2023/12/11 03:56:21;;;;;;;1.03;1.03;;;0.30;99.90;1.70;96012.00;;;;5030252;28;20436;-67
2023/12/11 03:59:11;;;;;;;1.00;1.00;;;0.30;99.90;2.20;96014.00;;;;5027182;28;20427;-65
2023/12/11 04:02:00;;;;;;;0.97;0.97;;;0.40;99.90;1.80;96007.00;;;;5024723;28;20451;-65
2023/12/11 04:04:49;;;;;;;1.00;1.00;;;0.30;99.90;1.80;96031.00;;;;5024778;28;20417;-66
2023/12/11 04:07:38;;;;;;;0.90;0.90;;;0.20;99.90;1.70;96032.00;;;;5029880;28;20439;-65
2023/12/11 04:10:28;;;;;;;1.30;1.30;;;0.20;99.90;1.50;96045.00;;;;5030523;28;20439;-65
2023/12/11 04:13:17;;;;;;;0.60;0.60;;;0.10;99.90;1.40;96038.00;;;;5029645;28;20452;-65
2023/12/11 04:16:07;;;;;;;0.90;0.90;;;0.00;99.90;1.30;96019.00;;;;5025335;28;20436;-66
2023/12/11 04:18:56;;;;;;;0.73;0.73;;;-0.10;99.90;1.60;96006.00;;;;5030740;28;20428;-66
2023/12/11 04:21:45;;;;;;;1.07;1.07;;;-0.10;99.90;1.90;96005.00;;;;5030227;28;20448;-66
2023/12/11 04:24:34;;;;;;;1.00;1.00;;;-0.10;99.90;1.70;96017.00;;;;5031257;28;20436;-65
2023/12/11 04:27:24;;;;;;;1.43;1.43;;;-0.10;99.90;1.90;96019.00;;;;5030733;28;20964;-66
2023/12/11 04:30:15;;;;;;;0.90;0.90;;;0.00;99.90;0.90;96032.00;;;;5031297;28;20428;-65
2023/12/11 04:33:04;;;;;;;0.77;0.77;;;-0.10;99.90;1.70;96047.00;;;;5024440;28;21007;-66
2023/12/11 04:35:53;;;;;;;0.70;0.70;;;-0.10;99.90;1.40;96052.00;;;;5024226;28;20530;-66
2023/12/11 04:38:41;;;;;;;0.80;0.80;;;-0.20;99.90;1.30;96067.00;;;;5029383;28;20961;-67
2023/12/11 04:41:30;;;;;;;1.80;1.70;;;-0.30;99.90;1.10;96048.00;;;;5024758;28;20436;-65
2023/12/11 04:44:21;;;;;;;0.80;0.80;;;-0.40;99.90;1.50;96064.00;;;;5029460;28;20424;-66
2023/12/11 04:47:10;;;;;;;0.80;0.80;;;-0.30;99.90;1.40;96078.00;;;;5025035;28;20428;-65
2023/12/11 04:49:58;;;;;;;0.90;0.90;;;-0.30;99.90;1.80;96086.00;;;;5024268;28;20958;-65
2023/12/11 04:52:48;;;;;;;0.70;0.70;;;-0.20;99.90;2.00;96090.00;;;;5025110;28;20478;-66
2023/12/11 04:55:37;;;;;;;1.20;1.20;;;-0.10;99.90;1.70;96078.00;;;;5021366;28;20467;-66
2023/12/11 04:58:26;;;;;;;0.70;0.70;;;-0.10;99.90;1.20;96090.00;;;;5028321;28;20424;-66
2023/12/11 05:01:16;;;;;;;0.73;0.73;;;-0.20;99.90;0.40;96097.00;;;;5025909;28;20452;-68
2023/12/11 05:04:06;;;;;;;0.67;0.67;;;-0.40;99.90;1.00;96107.00;;;;5027425;28;20506;-66
2023/12/11 05:06:55;;;;;;;0.90;0.90;;;-0.40;99.90;0.70;96104.00;;;;5026330;28;20813;-66
2023/12/11 05:09:44;;;;;;;0.70;0.70;;;-0.50;99.90;0.70;96114.00;;;;5029192;28;20432;-66
2023/12/11 05:12:33;;;;;;;1.20;1.20;;;-0.50;99.90;0.70;96113.00;;;;5022817;28;20476;-65
2023/12/11 05:15:22;;;;;;;1.07;1.07;;;-0.60;99.90;1.40;96090.00;;;;5028591;28;20480;-67
2023/12/11 05:18:12;;;;;;;0.73;0.73;;;-0.50;99.90;0.90;96107.00;;;;5028778;28;20429;-67
2023/12/11 05:21:07;;;;;;;1.03;1.03;;;-0.50;99.90;0.20;96108.00;;;;5024720;28;20459;-67
2023/12/11 05:23:57;;;;;;;0.80;0.80;;;-0.60;99.90;0.90;96127.00;;;;5025600;28;20443;-67
2023/12/11 05:26:46;;;;;;;0.70;0.70;;;-0.60;99.90;1.00;96119.00;;;;5029415;28;20938;-66
2023/12/11 05:29:35;;;;;;;1.27;1.27;;;-0.60;99.90;1.00;96143.00;;;;5025825;28;20416;-66
2023/12/11 05:32:23;;;;;;;0.87;0.87;;;-0.50;99.90;1.60;96150.00;;;;5027703;28;20459;-66
2023/12/11 05:35:14;;;;;;;0.90;0.90;;;-0.40;99.90;1.90;96152.00;;;;5028999;28;20546;-66
2023/12/11 05:38:03;;;;;;;0.80;0.80;;;-0.30;99.90;1.50;96155.00;;;;5021511;28;20436;-65
2023/12/11 05:40:52;;;;;;;0.87;0.87;;;-0.30;99.90;1.00;96161.00;;;;5022489;28;20441;-67
2023/12/11 05:43:41;;;;;;;1.20;1.20;;;-0.30;99.90;1.30;96154.00;;;;5024366;28;20456;-67
2023/12/11 05:46:30;;;;;;;0.90;0.90;;;-0.30;99.90;1.80;96162.00;;;;5024650;28;20421;-66
2023/12/11 05:49:20;;;;;;;0.97;0.97;;;-0.30;99.90;1.10;96155.00;;;;5025539;28;20443;-67
2023/12/11 05:52:10;;;;;;;0.90;0.90;;;-0.30;99.90;1.70;96145.00;;;;5025121;28;20457;-66
2023/12/11 05:54:59;;;;;;;0.90;0.90;;;-0.30;99.90;1.90;96134.00;;;;5025315;28;21013;-66
2023/12/11 05:57:48;;;;;;;0.80;0.80;;;-0.20;99.90;1.70;96114.00;;;;5026232;28;20424;-66
2023/12/11 06:00:38;;;;;;;1.00;1.00;;;-0.20;99.90;1.50;96118.00;;;;5027984;28;20837;-66
2023/12/11 06:03:28;;;;;;;1.57;1.57;;;-0.30;99.90;0.30;96142.00;;;;5025508;28;20979;-65
2023/12/11 06:06:17;;;;;;;0.80;0.80;;;-0.40;99.90;-0.10;96150.00;;;;5027462;28;20933;-66
2023/12/11 06:09:07;;;;;;;0.90;0.90;;;-0.70;99.90;0.60;96170.00;;;;5024110;28;20427;-66
2023/12/11 06:11:56;;;;;;;0.80;0.80;;;-0.70;99.90;0.70;96174.00;;;;5022217;28;20448;-66
2023/12/11 06:14:45;;;;;;;0.93;0.93;;;-0.70;99.90;1.40;96160.00;;;;5029233;28;20841;-67
2023/12/11 06:17:35;;;;;;;1.13;1.13;;;-0.60;99.90;1.60;96176.00;;;;5025054;28;20512;-67
2023/12/11 06:20:24;;;;;;;1.13;1.13;;;-0.50;99.90;1.80;96202.00;;;;5022828;28;20983;-67
2023/12/11 06:23:13;;;;;;;0.80;0.80;;;-0.40;99.90;1.50;96190.00;;;;5028508;28;20448;-66
2023/12/11 06:26:03;;;;;;;0.90;0.90;;;-0.30;99.90;1.50;96208.00;;;;5023745;28;20456;-67
2023/12/11 06:28:52;;;;;;;0.80;0.80;;;-0.30;99.90;1.80;96214.00;;;;5021581;28;20439;-66
2023/12/11 06:31:41;;;;;;;1.00;1.00;;;-0.20;99.90;1.60;96215.00;;;;5027154;28;20463;-67
2023/12/11 06:34:30;;;;;;;1.20;1.20;;;-0.20;99.90;1.90;96212.00;;;;5027989;28;20432;-66
2023/12/11 06:37:19;;;;;;;0.83;0.83;;;-0.20;99.90;2.00;96206.00;;;;5025762;28;20439;-67
2023/12/11 06:40:10;;;;;;;0.90;0.90;;;-0.10;99.90;2.10;96195.00;;;;5027182;28;20440;-67
2023/12/11 06:43:00;;;;;;;0.80;0.80;;;0.00;99.90;1.90;96175.00;;;;5023320;28;20440;-67
2023/12/11 06:45:49;;;;;;;0.60;0.60;;;0.00;99.90;1.80;96175.00;;;;5020578;28;20809;-67
2023/12/11 06:48:38;;;;;;;1.27;1.27;;;0.00;99.90;1.00;96157.00;;;;5027671;28;20424;-68
2023/12/11 06:51:27;;;;;;;1.50;1.50;;;-0.10;99.90;1.50;96153.00;;;;5027172;28;20436;-66
2023/12/11 06:54:16;;;;;;;0.80;0.80;;;-0.10;99.90;1.80;96171.00;;;;5028398;28;20431;-67
2023/12/11 06:57:05;;;;;;;0.60;0.60;;;-0.10;99.90;1.50;96174.00;;;;5023229;28;20480;-66
2023/12/11 06:59:56;;;;;;;0.80;0.80;;;-0.10;99.90;1.90;96177.00;;;;5022190;28;20784;-66
2023/12/11 07:02:45;;;;;;;0.90;0.90;;;0.00;99.90;1.10;96168.00;;;;5027272;28;20444;-65
2023/12/11 07:05:34;;;;;;;1.33;1.33;;;-0.10;99.90;0.40;96144.00;;;;5028597;28;20436;-65
2023/12/11 07:08:23;;;;;;;0.97;0.97;;;-0.20;99.90;0.80;96145.00;;;;5024702;28;20501;-67
2023/12/11 07:11:12;;;;;;;1.10;1.10;;;-0.20;99.90;1.80;96145.00;;;;5025831;28;20447;-67
2023/12/11 07:14:01;;;;;;;0.87;0.87;;;-0.10;99.90;1.70;96132.00;;;;5026760;28;20432;-66
2023/12/11 07:16:51;;;;;;;1.20;1.20;;;-0.10;99.90;1.80;96127.00;;;;5025838;28;21005;-66
2023/12/11 07:19:40;;;;;;;0.97;0.97;;;0.00;99.90;1.20;96122.00;;;;5028725;28;20425;-67
2023/12/11 07:22:30;;;;;;;1.53;1.53;;;0.00;99.90;1.20;96112.00;;;;5030913;28;20982;-66
2023/12/11 07:25:19;;;;;;;0.73;0.73;;;-0.10;99.90;2.10;96115.00;;;;5031170;28;20440;-67
2023/12/11 07:28:08;;;;;;;1.00;1.00;;;0.00;99.90;2.40;96099.00;;;;5026671;28;20489;-66
2023/12/11 07:30:58;;;;;;;1.07;1.07;;;0.20;99.90;1.60;96105.00;;;;5032308;28;20427;-68
2023/12/11 07:33:49;;;;;;;0.70;0.70;;;0.10;99.90;1.30;96094.00;;;;5027502;28;20433;-67
2023/12/11 07:36:38;;;;;;;1.20;1.20;;;0.10;99.90;1.20;96104.00;;;;5033875;28;20984;-67
2023/12/11 07:39:27;;;;;;;1.50;1.50;;;0.10;99.90;0.70;96141.00;;;;5027834;28;20424;-67
2023/12/11 07:42:16;;;;;;;0.90;0.90;;;0.00;99.90;1.20;96144.00;;;;5027713;28;20463;-67
2023/12/11 07:45:06;;;;;;;0.87;0.87;;;0.00;99.90;2.10;96114.00;;;;5032632;28;20433;-66
2023/12/11 07:47:55;;;;;;;0.70;0.70;;;0.10;99.90;2.30;96125.00;;;;5027077;28;20443;-66
2023/12/11 07:50:45;;;;;;;0.87;0.87;;;0.20;99.90;2.40;96120.00;;;;5028833;28;20448;-66
2023/12/11 07:53:35;;;;;;;0.90;0.90;;;0.30;99.90;2.40;96122.00;;;;5025790;28;20464;-66
2023/12/11 07:56:25;;;;;;;1.13;1.10;;;0.40;99.90;2.60;96123.00;;;;5028499;28;20475;-66
2023/12/11 07:59:14;;;;;;;0.90;0.90;;;0.50;99.90;1.10;96123.00;;;;5028729;28;20447;-67
2023/12/11 08:02:03;;;;;;;1.30;1.30;;;0.40;99.90;0.80;96114.00;;;;5027205;28;20474;-68
2023/12/11 08:04:52;;;;;;;0.80;0.80;;;0.20;99.90;1.10;96111.00;;;;5025732;28;20444;-67
2023/12/11 08:07:43;;;;;;;0.83;0.83;;;0.10;99.90;0.60;96114.00;;;;5025222;28;21138;-68
2023/12/11 08:10:33;;;;;;;1.57;1.57;;;-0.10;99.90;1.10;96133.00;;;;5025225;28;20444;-66
2023/12/11 08:13:22;;;;;;;0.70;0.70;;;-0.20;99.90;1.00;96125.00;;;;5026059;28;20455;-66
2023/12/11 08:16:13;;;;;;;0.87;0.87;;;-0.10;99.90;1.20;96122.00;;;;5027675;28;20855;-66
2023/12/11 08:19:02;;;;;;;0.97;0.97;;;0.00;99.90;1.30;96131.00;;;;5027345;28;21034;-66
2023/12/11 08:21:52;;;;;;;1.00;1.00;;;0.10;99.90;1.70;96127.00;;;;5023418;28;20464;-67
2023/12/11 08:24:43;;;;;;;0.83;0.83;;;0.20;99.90;1.40;96131.00;;;;5027242;28;20428;-66
2023/12/11 08:27:32;;;;;;;1.80;1.70;;;0.20;99.90;1.30;96139.00;;;;5026793;28;20451;-66
2023/12/11 08:30:21;;;;;;;0.70;0.70;;;0.20;99.90;1.40;96136.00;;;;5026329;28;20439;-67
2023/12/11 08:33:10;;;;;;;0.90;0.90;;;0.20;99.90;1.00;96135.00;;;;5025284;28;20479;-65
2023/12/11 08:35:59;;;;;;;1.20;1.20;;;0.20;99.90;1.60;96140.00;;;;5028729;28;20477;-65
2023/12/11 08:38:48;;;;;;;0.73;0.73;;;0.30;99.90;2.10;96125.00;;;;5027462;28;20444;-67
2023/12/11 08:41:38;;;;;;;1.17;1.17;;;0.40;99.90;2.50;96143.00;;;;5027768;28;20443;-65
2023/12/11 08:44:27;;;;;;;1.60;1.50;;;0.60;99.90;3.20;96124.00;;;;5035647;28;20442;-66
2023/12/11 08:47:16;;;;;;;0.90;0.90;;;0.80;99.90;2.10;96087.00;;;;5025204;28;21156;-66
2023/12/11 08:50:06;;;;;;;1.10;1.10;;;0.90;99.90;2.50;96097.00;;;;5024588;28;20436;-66
2023/12/11 08:52:56;;;;;;;0.80;0.80;;;1.10;99.90;2.70;96079.00;;;;5024224;28;20451;-65
2023/12/11 08:55:45;;;;;;;1.00;1.00;;;1.20;99.90;2.40;96089.00;;;;5023587;28;20431;-66
2023/12/11 08:58:35;;;;;;;1.50;1.50;;;1.30;99.90;2.10;96085.00;;;;5027493;28;20428;-67
2023/12/11 09:01:24;;;;;;;1.10;1.10;;;1.20;99.90;2.20;96091.00;;;;5026392;28;20463;-65
2023/12/11 09:04:13;;;;;;;1.00;1.00;;;1.00;99.90;2.40;96098.00;;;;5038526;28;20428;-67
2023/12/11 09:07:02;;;;;;;1.13;1.13;;;1.00;99.90;2.30;96112.00;;;;5029487;28;20431;-66
2023/12/11 09:09:51;;;;;;;1.50;1.40;;;1.10;99.90;3.00;96123.00;;;;5021070;28;20424;-67
2023/12/11 09:12:41;;;;;;;1.40;1.40;;;1.20;99.90;3.20;96130.00;;;;5025063;28;20981;-65
2023/12/11 09:15:31;;;;;;;2.00;1.90;;;1.30;99.90;2.60;96125.00;;;;5026486;28;20559;-67
2023/12/11 09:18:20;;;;;;;1.20;1.20;;;1.40;99.90;2.90;96119.00;;;;5022628;28;20412;-66
2023/12/11 09:21:09;;;;;;;1.20;1.20;;;1.40;99.90;3.30;96107.00;;;;5027476;28;20507;-67
2023/12/11 09:23:58;;;;;;;1.00;1.00;;;1.50;99.90;3.30;96109.00;;;;5025745;28;20441;-67
2023/12/11 09:26:47;;;;;;;1.17;1.17;;;1.60;99.90;3.60;96108.00;;;;5025147;28;20435;-66
2023/12/11 09:29:36;;;;;;;1.80;1.70;;;1.70;99.90;3.30;96118.00;;;;5026472;28;20445;-66
2023/12/11 09:32:28;;;;;;;1.63;1.57;;;1.70;99.90;3.10;96111.00;;;;5026162;28;20453;-69
2023/12/11 09:35:17;;;;;;;1.20;1.20;;;1.70;99.90;3.40;96098.00;;;;5024693;28;20440;-66
2023/12/11 09:38:06;;;;;;;1.00;1.00;;;1.80;99.90;2.30;96069.00;;;;5021112;28;20461;-69
2023/12/11 09:40:56;;;;;;;0.90;0.90;;;1.70;99.90;2.60;96063.00;;;;5024225;28;20440;-66
2023/12/11 09:43:47;;;;;;;1.10;1.10;;;1.70;99.90;3.00;96062.00;;;;5027776;28;20435;-66
2023/12/11 09:46:42;;;;;;;1.67;1.57;;;1.70;99.90;3.30;96059.00;;;;5026501;28;20818;-67
2023/12/11 09:49:32;;;;;;;2.40;2.30;;;1.70;99.90;3.20;96057.00;;;;5025403;28;20436;-67
2023/12/11 09:52:22;;;;;;;1.30;1.20;;;1.80;99.90;3.20;96042.00;;;;5022733;28;20443;-64
2023/12/11 09:55:11;;;;;;;0.93;0.93;;;2.00;99.90;3.60;96060.00;;;;5019768;28;20428;-65
2023/12/11 09:58:01;;;;;;;0.90;0.90;;;2.10;99.90;3.80;96058.00;;;;5027017;28;20456;-67
2023/12/11 10:00:50;;;;;;;0.90;0.90;;;2.20;99.90;4.00;96043.00;;;;5022805;28;20428;-67
2023/12/11 10:03:39;;;;;;;1.57;1.47;;;2.30;99.90;3.80;96045.00;;;;5026103;28;20463;-66
2023/12/11 10:06:29;;;;;;;2.27;2.17;;;2.50;99.90;4.10;96037.00;;;;5027370;28;20435;-67
2023/12/11 10:09:28;;;;;;;1.13;1.10;;;2.60;99.90;4.50;96015.00;;;;5027526;28;20209;-67
2023/12/11 10:12:17;;;;;;;1.00;1.00;;;2.80;99.90;4.20;95971.00;;;;5024260;28;20240;-66
2023/12/11 10:15:07;;;;;;;0.97;0.97;;;2.90;99.90;5.20;95962.00;;;;5024344;28;20210;-66
2023/12/11 10:18:06;;;;;;;0.97;0.93;;;3.10;99.90;6.30;95966.00;;;;5021347;28;20225;-67
2023/12/11 10:20:57;;;;;;;1.20;1.10;;;3.70;99.90;5.70;95958.00;;;;5014898;28;20202;-66
2023/12/11 10:24:01;;;;;;;1.07;1.07;;;4.40;99.90;3.80;95939.00;;;;5027580;28;20693;-69
2023/12/11 10:26:56;;;;;;;1.33;1.23;;;4.40;99.90;3.70;95924.00;;;;5024253;28;20581;-67
2023/12/11 10:29:45;;;;;;;1.43;1.33;;;3.90;99.90;4.80;95932.00;;;;5022507;28;20201;-67
2023/12/11 10:32:34;;;;;;;2.23;2.10;;;3.90;99.90;4.80;95949.00;;;;5015583;28;20706;-67
2023/12/11 10:35:26;;;;;;;1.50;1.40;;;4.00;99.90;5.00;95979.00;;;;5017097;28;20205;-68
2023/12/11 10:38:22;;;;;;;1.30;1.20;;;4.10;99.90;4.80;95955.00;;;;5028123;28;20228;-68
2023/12/11 10:41:26;;;;;;;1.03;1.03;;;4.00;99.90;5.10;95961.00;;;;5024849;28;20635;-67
2023/12/11 10:44:25;;;;;;;0.87;0.87;;;3.90;99.90;5.80;95977.00;;;;5025407;28;20205;-65
2023/12/11 10:47:21;;;;;;;1.20;1.10;;;3.90;99.90;6.40;95974.00;;;;5017107;28;20284;-66
2023/12/11 10:50:11;;;;;;;1.30;1.20;;;4.10;99.90;5.90;95964.00;;;;5015581;28;20572;-66
2023/12/11 10:53:01;;;;;;;1.07;1.07;;;4.10;99.90;5.00;95954.00;;;;5026553;28;20607;-66
2023/12/11 10:55:51;;;;;;;1.30;1.20;;;4.10;99.90;6.00;95961.00;;;;5017627;28;20228;-66
2023/12/11 10:58:41;;;;;;;1.87;1.77;;;4.10;99.90;6.10;95953.00;;;;5017579;28;20241;-66
2023/12/11 11:01:30;;;;;;;1.73;1.63;;;4.10;99.90;6.50;95957.00;;;;5016572;28;20216;-66
2023/12/11 11:04:21;;;;;;;1.60;1.50;;;4.20;99.90;6.30;95953.00;;;;5016317;28;20379;-66
2023/12/11 11:07:18;;;;;;;1.03;1.03;;;4.20;99.90;7.40;95978.00;;;;5022695;28;20693;-66
2023/12/11 11:10:15;;;;;;;1.30;1.20;;;4.40;99.90;7.40;95987.00;;;;5019958;28;20198;-66
2023/12/11 11:13:09;;;;;;;1.33;1.23;;;4.70;99.90;5.60;95970.00;;;;5019701;28;20279;-68
2023/12/11 11:15:59;;;;;;;1.23;1.17;;;4.60;99.90;4.90;95972.00;;;;5023041;28;20201;-67
2023/12/11 11:19:05;;;;;;;0.80;0.80;;;4.30;99.90;5.10;95959.00;;;;5024670;28;20614;-65
2023/12/11 11:22:22;;;;;;;0.97;0.97;;;4.00;99.90;5.10;95938.00;;;;5024548;28;20244;-66
2023/12/11 11:25:36;;;;;;;0.70;0.70;;;3.90;99.90;6.00;95939.00;;;;5020828;28;20241;-66
2023/12/11 11:28:50;;;;;;;1.00;1.00;;;4.00;99.90;6.10;95943.00;;;;5023433;28;20207;-67
2023/12/11 11:34:15;;;;;;;1.00;1.00;;;5.00;99.90;6.40;95950.00;;;;5022979;28;20227;-72
2023/12/11 11:37:04;;;;;;;1.30;1.20;;;4.50;99.90;6.90;95952.00;;;;5021545;28;20210;-72
2023/12/11 11:40:01;;;;;;;1.53;1.43;;;4.60;99.90;6.40;95938.00;;;;5019831;28;20211;-74
2023/12/11 11:42:50;;;;;;;1.27;1.17;;;4.70;99.90;5.90;95931.00;;;;5010079;28;20828;-72
2023/12/11 11:45:39;;;;;;;2.40;2.20;;;4.70;99.90;6.20;95960.00;;;;5005917;28;20202;-72
2023/12/11 11:48:41;;;;;;;2.20;1.97;;;4.70;99.90;6.40;95964.00;;;;5006721;28;20206;-73
2023/12/11 11:51:32;;;;;;;2.57;2.37;;;4.80;99.90;5.40;95970.00;;;;5006698;28;20291;-73
2023/12/11 11:54:24;;;;;;;1.20;1.10;;;4.70;99.90;5.80;95975.00;;;;4999328;28;20715;-72
2023/12/11 11:57:13;;;;;;;1.23;1.07;;;4.60;99.90;6.00;95956.00;;;;5003832;28;20264;-74
2023/12/11 12:00:02;;;;;;;1.30;1.10;;;4.40;99.90;6.50;95950.00;;;;5003039;28;20217;-73
2023/12/11 12:02:57;;;;;;;1.30;1.20;;;4.40;99.90;6.70;95948.00;;;;5008030;28;20222;-73
2023/12/11 12:05:55;;;;;;;1.10;1.00;;;4.50;99.90;5.40;95948.00;;;;5008123;28;20214;-71
2023/12/11 12:08:46;;;;;;;1.73;1.63;;;4.40;99.90;5.60;95943.00;;;;5000335;28;20241;-73
2023/12/11 12:11:35;;;;;;;2.33;2.13;;;4.20;99.90;5.70;95947.00;;;;5001702;28;20225;-73
2023/12/11 12:14:25;;;;;;;0.83;0.83;;;4.10;99.90;5.90;95947.00;;;;5008247;28;20206;-72
2023/12/11 12:17:14;;;;;;;1.30;1.20;;;4.10;99.90;6.00;95944.00;;;;5011567;28;20293;-73
2023/12/11 12:20:10;;;;;;;1.67;1.50;;;4.10;99.90;6.40;95947.00;;;;5004542;28;20706;-73
2023/12/11 12:23:00;;;;;;;1.70;1.43;;;4.10;99.90;5.50;95946.00;;;;5005179;28;20379;-72
2023/12/11 12:25:57;;;;;;;2.50;2.20;;;4.10;99.90;5.90;95953.00;;;;5005837;28;20221;-74
2023/12/11 12:28:46;;;;;;;1.53;1.37;;;4.10;99.90;5.50;95943.00;;;;5002516;28;20228;-72
2023/12/11 12:31:36;;;;;;;3.03;2.70;;;4.00;99.90;5.20;95930.00;;;;5010041;28;20209;-74
2023/12/11 12:34:26;;;;;;;1.57;1.40;;;3.90;99.90;6.10;95928.00;;;;5007133;28;20942;-74
2023/12/11 12:37:16;;;;;;;2.00;1.70;;;4.00;99.90;6.50;95929.00;;;;5005247;28;20213;-74
2023/12/11 12:40:07;;;;;;;1.20;1.10;;;4.10;99.90;5.80;95916.00;;;;5008651;28;20206;-73
2023/12/11 12:42:58;;;;;;;2.30;1.90;;;4.10;99.90;6.20;95898.00;;;;5009207;28;20722;-73
2023/12/11 12:45:48;;;;;;;1.50;1.40;;;4.10;99.90;6.70;95888.00;;;;5008778;28;20222;-74
2023/12/11 12:48:37;;;;;;;2.43;2.23;;;4.20;99.90;5.50;95871.00;;;;5002599;28;20202;-72
2023/12/11 12:51:26;;;;;;;1.37;1.27;;;4.20;99.90;4.60;95866.00;;;;5007247;28;20206;-71
2023/12/11 12:54:16;;;;;;;1.53;1.30;;;3.90;99.90;5.20;95887.00;;;;5004629;28;20204;-72